sensor_id;sensor_type;location;lat;lon;timestamp;P1;durP1;ratioP1;P2;durP2;ratioP2
73120;SDS011;61307;49.628;-1.624;2023-03-04T00:00:03;2.05;;;1.02;;
73120;SDS011;61307;49.628;-1.624;2023-03-04T00:02:31;2.55;;;1.13;;
73120;SDS011;61307;49.628;-1.624;2023-03-04T00:05:00;1.35;;;1.00;;
73120;SDS011;61307;49.628;-1.624;2023-03-04T00:07:29;1.15;;;1.05;;
73120;SDS011;61307;49.628;-1.624;2023-03-04T00:09:56;3.67;;;0.95;;
73120;SDS011;61307;49.628;-1.624;2023-03-04T00:12:23;1.80;;;0.80;;
73120;SDS011;61307;49.628;-1.624;2023-03-04T00:14:51;1.27;;;0.80;;
73120;SDS011;61307;49.628;-1.624;2023-03-04T00:17:18;1.20;;;1.05;;
73120;SDS011;61307;49.628;-1.624;2023-03-04T00:19:45;1.67;;;1.15;;
73120;SDS011;61307;49.628;-1.624;2023-03-04T00:22:14;2.30;;;1.10;;
73120;SDS011;61307;49.628;-1.624;2023-03-04T00:24:41;2.30;;;1.13;;
73120;SDS011;61307;49.628;-1.624;2023-03-04T00:27:08;1.17;;;0.90;;
73120;SDS011;61307;49.628;-1.624;2023-03-04T00:29:36;2.42;;;1.00;;
73120;SDS011;61307;49.628;-1.624;2023-03-04T00:32:03;2.10;;;1.42;;
73120;SDS011;61307;49.628;-1.624;2023-03-04T00:34:31;4.32;;;1.10;;
73120;SDS011;61307;49.628;-1.624;2023-03-04T00:36:58;1.08;;;0.82;;
73120;SDS011;61307;49.628;-1.624;2023-03-04T00:39:27;3.63;;;0.88;;
73120;SDS011;61307;49.628;-1.624;2023-03-04T00:41:54;2.83;;;1.23;;
73120;SDS011;61307;49.628;-1.624;2023-03-04T00:44:21;2.15;;;1.00;;
73120;SDS011;61307;49.628;-1.624;2023-03-04T00:46:49;2.30;;;1.20;;
73120;SDS011;61307;49.628;-1.624;2023-03-04T00:49:16;1.50;;;0.82;;
73120;SDS011;61307;49.628;-1.624;2023-03-04T00:51:43;2.05;;;1.05;;
73120;SDS011;61307;49.628;-1.624;2023-03-04T00:54:11;1.02;;;0.95;;
73120;SDS011;61307;49.628;-1.624;2023-03-04T00:56:40;1.83;;;1.10;;
73120;SDS011;61307;49.628;-1.624;2023-03-04T00:59:07;3.40;;;1.15;;
73120;SDS011;61307;49.628;-1.624;2023-03-04T01:01:34;2.08;;;1.10;;
73120;SDS011;61307;49.628;-1.624;2023-03-04T01:04:02;3.42;;;0.80;;
73120;SDS011;61307;49.628;-1.624;2023-03-04T01:06:29;2.33;;;1.02;;
73120;SDS011;61307;49.628;-1.624;2023-03-04T01:08:56;1.95;;;0.90;;
73120;SDS011;61307;49.628;-1.624;2023-03-04T01:11:23;2.15;;;0.90;;
73120;SDS011;61307;49.628;-1.624;2023-03-04T01:13:52;1.67;;;1.00;;
73120;SDS011;61307;49.628;-1.624;2023-03-04T01:16:19;2.15;;;0.80;;
73120;SDS011;61307;49.628;-1.624;2023-03-04T01:18:46;1.70;;;0.90;;
73120;SDS011;61307;49.628;-1.624;2023-03-04T01:21:13;2.40;;;0.82;;
73120;SDS011;61307;49.628;-1.624;2023-03-04T01:23:41;1.70;;;0.90;;
73120;SDS011;61307;49.628;-1.624;2023-03-04T01:26:08;1.67;;;0.75;;
73120;SDS011;61307;49.628;-1.624;2023-03-04T01:28:35;2.25;;;0.90;;
73120;SDS011;61307;49.628;-1.624;2023-03-04T01:31:04;1.50;;;0.90;;
73120;SDS011;61307;49.628;-1.624;2023-03-04T01:33:31;1.20;;;0.93;;
73120;SDS011;61307;49.628;-1.624;2023-03-04T01:35:58;1.10;;;0.80;;
73120;SDS011;61307;49.628;-1.624;2023-03-04T01:38:26;1.50;;;1.00;;
73120;SDS011;61307;49.628;-1.624;2023-03-04T01:40:53;2.05;;;1.10;;
73120;SDS011;61307;49.628;-1.624;2023-03-04T01:43:21;2.03;;;0.65;;
73120;SDS011;61307;49.628;-1.624;2023-03-04T01:45:50;3.17;;;1.20;;
73120;SDS011;61307;49.628;-1.624;2023-03-04T01:48:22;4.50;;;0.80;;
73120;SDS011;61307;49.628;-1.624;2023-03-04T01:50:52;1.30;;;0.90;;
73120;SDS011;61307;49.628;-1.624;2023-03-04T01:53:20;2.47;;;0.90;;
73120;SDS011;61307;49.628;-1.624;2023-03-04T01:55:51;1.30;;;0.93;;
73120;SDS011;61307;49.628;-1.624;2023-03-04T01:58:19;1.95;;;0.80;;
73120;SDS011;61307;49.628;-1.624;2023-03-04T02:00:47;1.55;;;0.98;;
73120;SDS011;61307;49.628;-1.624;2023-03-04T02:03:15;0.90;;;0.82;;
73120;SDS011;61307;49.628;-1.624;2023-03-04T02:05:47;1.95;;;0.93;;
73120;SDS011;61307;49.628;-1.624;2023-03-04T02:08:16;1.45;;;0.88;;
73120;SDS011;61307;49.628;-1.624;2023-03-04T02:10:46;0.75;;;0.75;;
73120;SDS011;61307;49.628;-1.624;2023-03-04T02:13:14;1.20;;;0.93;;
73120;SDS011;61307;49.628;-1.624;2023-03-04T02:15:43;1.27;;;0.90;;
73120;SDS011;61307;49.628;-1.624;2023-03-04T02:18:13;2.33;;;1.25;;
73120;SDS011;61307;49.628;-1.624;2023-03-04T02:20:43;1.58;;;0.90;;
73120;SDS011;61307;49.628;-1.624;2023-03-04T02:23:20;1.42;;;0.88;;
73120;SDS011;61307;49.628;-1.624;2023-03-04T02:28:51;1.85;;;1.00;;
73120;SDS011;61307;49.628;-1.624;2023-03-04T02:31:22;2.28;;;1.08;;
73120;SDS011;61307;49.628;-1.624;2023-03-04T02:33:51;2.83;;;1.45;;
73120;SDS011;61307;49.628;-1.624;2023-03-04T02:36:20;1.20;;;0.90;;
73120;SDS011;61307;49.628;-1.624;2023-03-04T02:38:48;1.17;;;0.90;;
73120;SDS011;61307;49.628;-1.624;2023-03-04T02:41:17;1.25;;;1.00;;
73120;SDS011;61307;49.628;-1.624;2023-03-04T02:43:48;1.17;;;0.90;;
73120;SDS011;61307;49.628;-1.624;2023-03-04T02:46:19;0.98;;;0.80;;
73120;SDS011;61307;49.628;-1.624;2023-03-04T02:48:46;1.70;;;0.82;;
73120;SDS011;61307;49.628;-1.624;2023-03-04T02:51:14;1.67;;;1.00;;
73120;SDS011;61307;49.628;-1.624;2023-03-04T02:53:41;3.00;;;0.82;;
73120;SDS011;61307;49.628;-1.624;2023-03-04T02:56:09;1.10;;;0.90;;
73120;SDS011;61307;49.628;-1.624;2023-03-04T02:58:36;1.75;;;1.00;;
73120;SDS011;61307;49.628;-1.624;2023-03-04T03:01:04;1.77;;;1.00;;
73120;SDS011;61307;49.628;-1.624;2023-03-04T03:03:33;1.58;;;0.95;;
73120;SDS011;61307;49.628;-1.624;2023-03-04T03:06:00;0.65;;;0.65;;
73120;SDS011;61307;49.628;-1.624;2023-03-04T03:08:27;1.65;;;0.80;;
73120;SDS011;61307;49.628;-1.624;2023-03-04T03:10:54;1.27;;;0.90;;
73120;SDS011;61307;49.628;-1.624;2023-03-04T03:13:21;1.95;;;0.93;;
73120;SDS011;61307;49.628;-1.624;2023-03-04T03:15:49;1.08;;;0.82;;
73120;SDS011;61307;49.628;-1.624;2023-03-04T03:18:16;1.23;;;0.70;;
73120;SDS011;61307;49.628;-1.624;2023-03-04T03:20:45;2.17;;;0.90;;
73120;SDS011;61307;49.628;-1.624;2023-03-04T03:23:12;2.38;;;0.80;;
73120;SDS011;61307;49.628;-1.624;2023-03-04T03:25:39;2.30;;;0.88;;
73120;SDS011;61307;49.628;-1.624;2023-03-04T03:28:06;2.13;;;0.98;;
73120;SDS011;61307;49.628;-1.624;2023-03-04T03:30:33;2.00;;;0.90;;
73120;SDS011;61307;49.628;-1.624;2023-03-04T03:33:00;1.73;;;1.00;;
73120;SDS011;61307;49.628;-1.624;2023-03-04T03:35:28;1.17;;;0.85;;
73120;SDS011;61307;49.628;-1.624;2023-03-04T03:37:57;1.05;;;0.85;;
73120;SDS011;61307;49.628;-1.624;2023-03-04T03:40:24;3.00;;;0.93;;
73120;SDS011;61307;49.628;-1.624;2023-03-04T03:42:52;3.38;;;1.00;;
73120;SDS011;61307;49.628;-1.624;2023-03-04T03:45:19;1.27;;;0.70;;
73120;SDS011;61307;49.628;-1.624;2023-03-04T03:47:46;2.25;;;1.05;;
73120;SDS011;61307;49.628;-1.624;2023-03-04T03:50:14;1.38;;;0.70;;
73120;SDS011;61307;49.628;-1.624;2023-03-04T03:52:41;2.42;;;0.93;;
73120;SDS011;61307;49.628;-1.624;2023-03-04T03:55:10;1.38;;;1.00;;
73120;SDS011;61307;49.628;-1.624;2023-03-04T03:57:37;1.17;;;0.82;;
73120;SDS011;61307;49.628;-1.624;2023-03-04T04:00:05;2.50;;;0.80;;
73120;SDS011;61307;49.628;-1.624;2023-03-04T04:02:34;1.55;;;0.90;;
73120;SDS011;61307;49.628;-1.624;2023-03-04T04:05:01;1.75;;;0.80;;
73120;SDS011;61307;49.628;-1.624;2023-03-04T04:07:28;2.33;;;0.80;;
73120;SDS011;61307;49.628;-1.624;2023-03-04T04:09:56;2.40;;;0.98;;
73120;SDS011;61307;49.628;-1.624;2023-03-04T04:12:24;3.50;;;1.10;;
73120;SDS011;61307;49.628;-1.624;2023-03-04T04:14:52;1.33;;;0.98;;
73120;SDS011;61307;49.628;-1.624;2023-03-04T04:17:19;0.68;;;0.60;;
73120;SDS011;61307;49.628;-1.624;2023-03-04T04:19:46;1.70;;;1.00;;
73120;SDS011;61307;49.628;-1.624;2023-03-04T04:22:14;2.05;;;0.77;;
73120;SDS011;61307;49.628;-1.624;2023-03-04T04:24:43;1.42;;;0.80;;
73120;SDS011;61307;49.628;-1.624;2023-03-04T04:27:10;1.85;;;0.80;;
73120;SDS011;61307;49.628;-1.624;2023-03-04T04:29:39;1.75;;;0.80;;
73120;SDS011;61307;49.628;-1.624;2023-03-04T04:32:07;1.15;;;0.98;;
73120;SDS011;61307;49.628;-1.624;2023-03-04T04:34:37;1.98;;;1.00;;
73120;SDS011;61307;49.628;-1.624;2023-03-04T04:37:05;2.17;;;0.90;;
73120;SDS011;61307;49.628;-1.624;2023-03-04T04:39:32;1.08;;;0.80;;
73120;SDS011;61307;49.628;-1.624;2023-03-04T04:41:59;2.38;;;0.98;;
73120;SDS011;61307;49.628;-1.624;2023-03-04T04:44:26;2.55;;;1.13;;
73120;SDS011;61307;49.628;-1.624;2023-03-04T04:46:56;1.23;;;0.65;;
73120;SDS011;61307;49.628;-1.624;2023-03-04T04:49:23;1.63;;;0.95;;
73120;SDS011;61307;49.628;-1.624;2023-03-04T04:51:50;1.23;;;1.00;;
73120;SDS011;61307;49.628;-1.624;2023-03-04T04:54:17;1.38;;;1.02;;
73120;SDS011;61307;49.628;-1.624;2023-03-04T04:56:44;1.80;;;0.80;;
73120;SDS011;61307;49.628;-1.624;2023-03-04T04:59:12;1.20;;;0.70;;
73120;SDS011;61307;49.628;-1.624;2023-03-04T05:01:39;1.30;;;0.80;;
73120;SDS011;61307;49.628;-1.624;2023-03-04T05:04:08;1.38;;;0.90;;
73120;SDS011;61307;49.628;-1.624;2023-03-04T05:06:36;1.40;;;0.77;;
73120;SDS011;61307;49.628;-1.624;2023-03-04T05:09:03;1.45;;;0.90;;
73120;SDS011;61307;49.628;-1.624;2023-03-04T05:11:31;2.10;;;1.00;;
73120;SDS011;61307;49.628;-1.624;2023-03-04T05:13:58;2.15;;;0.88;;
73120;SDS011;61307;49.628;-1.624;2023-03-04T05:16:25;1.85;;;0.80;;
73120;SDS011;61307;49.628;-1.624;2023-03-04T05:18:53;2.35;;;1.00;;
73120;SDS011;61307;49.628;-1.624;2023-03-04T05:21:21;1.55;;;0.68;;
73120;SDS011;61307;49.628;-1.624;2023-03-04T05:23:48;1.27;;;1.00;;
73120;SDS011;61307;49.628;-1.624;2023-03-04T05:26:16;2.30;;;0.73;;
73120;SDS011;61307;49.628;-1.624;2023-03-04T05:28:44;1.60;;;0.93;;
73120;SDS011;61307;49.628;-1.624;2023-03-04T05:31:12;4.72;;;1.30;;
73120;SDS011;61307;49.628;-1.624;2023-03-04T05:33:39;1.23;;;0.80;;
73120;SDS011;61307;49.628;-1.624;2023-03-04T05:36:06;2.45;;;0.95;;
73120;SDS011;61307;49.628;-1.624;2023-03-04T05:38:35;2.05;;;1.15;;
73120;SDS011;61307;49.628;-1.624;2023-03-04T05:41:03;1.45;;;0.85;;
73120;SDS011;61307;49.628;-1.624;2023-03-04T05:43:32;3.20;;;1.00;;
73120;SDS011;61307;49.628;-1.624;2023-03-04T05:46:00;4.32;;;1.02;;
73120;SDS011;61307;49.628;-1.624;2023-03-04T05:48:28;3.85;;;1.10;;
73120;SDS011;61307;49.628;-1.624;2023-03-04T05:50:56;1.13;;;0.88;;
73120;SDS011;61307;49.628;-1.624;2023-03-04T05:53:24;3.25;;;0.93;;
73120;SDS011;61307;49.628;-1.624;2023-03-04T05:55:53;3.45;;;1.08;;
73120;SDS011;61307;49.628;-1.624;2023-03-04T05:58:23;2.88;;;1.17;;
73120;SDS011;61307;49.628;-1.624;2023-03-04T06:00:51;3.08;;;1.10;;
73120;SDS011;61307;49.628;-1.624;2023-03-04T06:03:18;3.70;;;0.98;;
73120;SDS011;61307;49.628;-1.624;2023-03-04T06:05:48;1.85;;;1.05;;
73120;SDS011;61307;49.628;-1.624;2023-03-04T06:08:15;1.83;;;0.93;;
73120;SDS011;61307;49.628;-1.624;2023-03-04T06:10:42;3.65;;;1.00;;
73120;SDS011;61307;49.628;-1.624;2023-03-04T06:13:11;2.15;;;0.90;;
73120;SDS011;61307;49.628;-1.624;2023-03-04T06:15:38;5.68;;;1.13;;
73120;SDS011;61307;49.628;-1.624;2023-03-04T06:18:06;3.50;;;1.05;;
73120;SDS011;61307;49.628;-1.624;2023-03-04T06:20:33;2.53;;;1.38;;
73120;SDS011;61307;49.628;-1.624;2023-03-04T06:23:01;5.05;;;1.20;;
73120;SDS011;61307;49.628;-1.624;2023-03-04T06:25:29;2.50;;;1.02;;
73120;SDS011;61307;49.628;-1.624;2023-03-04T06:27:58;3.17;;;1.25;;
73120;SDS011;61307;49.628;-1.624;2023-03-04T06:30:27;3.78;;;1.20;;
73120;SDS011;61307;49.628;-1.624;2023-03-04T06:32:54;4.72;;;1.10;;
73120;SDS011;61307;49.628;-1.624;2023-03-04T06:35:21;3.42;;;1.27;;
73120;SDS011;61307;49.628;-1.624;2023-03-04T06:37:49;3.45;;;1.25;;
73120;SDS011;61307;49.628;-1.624;2023-03-04T06:40:16;2.95;;;1.30;;
73120;SDS011;61307;49.628;-1.624;2023-03-04T06:42:43;3.22;;;1.40;;
73120;SDS011;61307;49.628;-1.624;2023-03-04T06:45:11;3.80;;;0.90;;
73120;SDS011;61307;49.628;-1.624;2023-03-04T06:47:40;3.83;;;1.30;;
73120;SDS011;61307;49.628;-1.624;2023-03-04T06:50:10;2.10;;;1.15;;
73120;SDS011;61307;49.628;-1.624;2023-03-04T06:52:38;5.47;;;1.30;;
73120;SDS011;61307;49.628;-1.624;2023-03-04T06:55:06;6.38;;;1.40;;
73120;SDS011;61307;49.628;-1.624;2023-03-04T06:57:34;4.32;;;1.48;;
73120;SDS011;61307;49.628;-1.624;2023-03-04T07:00:02;3.92;;;1.48;;
73120;SDS011;61307;49.628;-1.624;2023-03-04T07:02:30;2.45;;;1.10;;
73120;SDS011;61307;49.628;-1.624;2023-03-04T07:05:00;2.20;;;1.00;;
73120;SDS011;61307;49.628;-1.624;2023-03-04T07:07:27;2.83;;;1.20;;
73120;SDS011;61307;49.628;-1.624;2023-03-04T07:09:54;3.25;;;1.17;;
73120;SDS011;61307;49.628;-1.624;2023-03-04T07:12:21;4.70;;;1.38;;
73120;SDS011;61307;49.628;-1.624;2023-03-04T07:14:48;1.52;;;1.10;;
73120;SDS011;61307;49.628;-1.624;2023-03-04T07:17:16;4.25;;;1.40;;
73120;SDS011;61307;49.628;-1.624;2023-03-04T07:19:43;3.17;;;1.50;;
73120;SDS011;61307;49.628;-1.624;2023-03-04T07:22:11;4.25;;;1.17;;
73120;SDS011;61307;49.628;-1.624;2023-03-04T07:24:39;3.22;;;1.17;;
73120;SDS011;61307;49.628;-1.624;2023-03-04T07:27:06;4.22;;;1.42;;
73120;SDS011;61307;49.628;-1.624;2023-03-04T07:29:33;2.97;;;1.15;;
73120;SDS011;61307;49.628;-1.624;2023-03-04T07:32:01;3.38;;;1.35;;
73120;SDS011;61307;49.628;-1.624;2023-03-04T07:34:32;5.38;;;1.40;;
73120;SDS011;61307;49.628;-1.624;2023-03-04T07:36:59;2.33;;;1.27;;
73120;SDS011;61307;49.628;-1.624;2023-03-04T07:39:30;5.40;;;1.20;;
73120;SDS011;61307;49.628;-1.624;2023-03-04T07:41:57;2.80;;;1.20;;
73120;SDS011;61307;49.628;-1.624;2023-03-04T07:44:24;4.63;;;1.30;;
73120;SDS011;61307;49.628;-1.624;2023-03-04T07:46:51;4.72;;;1.30;;
73120;SDS011;61307;49.628;-1.624;2023-03-04T07:49:19;4.07;;;1.50;;
73120;SDS011;61307;49.628;-1.624;2023-03-04T07:51:46;4.70;;;1.48;;
73120;SDS011;61307;49.628;-1.624;2023-03-04T07:54:13;4.57;;;1.27;;
73120;SDS011;61307;49.628;-1.624;2023-03-04T07:56:42;4.53;;;1.45;;
73120;SDS011;61307;49.628;-1.624;2023-03-04T07:59:09;3.03;;;1.20;;
73120;SDS011;61307;49.628;-1.624;2023-03-04T08:01:36;3.30;;;1.30;;
73120;SDS011;61307;49.628;-1.624;2023-03-04T08:04:04;4.38;;;1.38;;
73120;SDS011;61307;49.628;-1.624;2023-03-04T08:06:32;4.78;;;1.42;;
73120;SDS011;61307;49.628;-1.624;2023-03-04T08:09:02;5.13;;;1.80;;
73120;SDS011;61307;49.628;-1.624;2023-03-04T08:11:31;2.45;;;1.38;;
73120;SDS011;61307;49.628;-1.624;2023-03-04T08:14:02;5.72;;;1.60;;
73120;SDS011;61307;49.628;-1.624;2023-03-04T08:16:29;2.63;;;1.23;;
73120;SDS011;61307;49.628;-1.624;2023-03-04T08:18:58;4.03;;;1.40;;
73120;SDS011;61307;49.628;-1.624;2023-03-04T08:21:26;3.03;;;1.08;;
73120;SDS011;61307;49.628;-1.624;2023-03-04T08:23:55;4.60;;;1.60;;
73120;SDS011;61307;49.628;-1.624;2023-03-04T08:26:24;4.55;;;1.67;;
73120;SDS011;61307;49.628;-1.624;2023-03-04T08:28:53;4.35;;;1.50;;
73120;SDS011;61307;49.628;-1.624;2023-03-04T08:31:23;4.18;;;1.35;;
73120;SDS011;61307;49.628;-1.624;2023-03-04T08:33:51;3.55;;;1.63;;
73120;SDS011;61307;49.628;-1.624;2023-03-04T08:36:18;3.97;;;1.40;;
73120;SDS011;61307;49.628;-1.624;2023-03-04T08:38:46;4.25;;;1.60;;
73120;SDS011;61307;49.628;-1.624;2023-03-04T08:41:13;4.78;;;1.33;;
73120;SDS011;61307;49.628;-1.624;2023-03-04T08:43:41;4.38;;;1.45;;
73120;SDS011;61307;49.628;-1.624;2023-03-04T08:46:08;4.93;;;1.70;;
73120;SDS011;61307;49.628;-1.624;2023-03-04T08:48:37;2.90;;;1.40;;
73120;SDS011;61307;49.628;-1.624;2023-03-04T08:51:07;3.00;;;1.40;;
73120;SDS011;61307;49.628;-1.624;2023-03-04T08:53:37;4.38;;;1.42;;
73120;SDS011;61307;49.628;-1.624;2023-03-04T08:56:05;5.35;;;1.52;;
73120;SDS011;61307;49.628;-1.624;2023-03-04T08:58:33;4.68;;;1.67;;
73120;SDS011;61307;49.628;-1.624;2023-03-04T09:01:01;3.47;;;1.60;;
73120;SDS011;61307;49.628;-1.624;2023-03-04T09:03:29;3.88;;;1.58;;
73120;SDS011;61307;49.628;-1.624;2023-03-04T09:06:00;3.55;;;1.40;;
73120;SDS011;61307;49.628;-1.624;2023-03-04T09:08:28;3.45;;;1.65;;
73120;SDS011;61307;49.628;-1.624;2023-03-04T09:10:55;4.97;;;1.50;;
73120;SDS011;61307;49.628;-1.624;2023-03-04T09:13:22;2.22;;;1.30;;
73120;SDS011;61307;49.628;-1.624;2023-03-04T09:15:51;4.25;;;1.73;;
73120;SDS011;61307;49.628;-1.624;2023-03-04T09:18:19;4.70;;;1.75;;
73120;SDS011;61307;49.628;-1.624;2023-03-04T09:20:48;4.93;;;1.45;;
73120;SDS011;61307;49.628;-1.624;2023-03-04T09:23:17;6.40;;;1.80;;
73120;SDS011;61307;49.628;-1.624;2023-03-04T09:25:44;3.55;;;1.40;;
73120;SDS011;61307;49.628;-1.624;2023-03-04T09:28:13;5.90;;;1.65;;
73120;SDS011;61307;49.628;-1.624;2023-03-04T09:30:41;6.10;;;1.73;;
73120;SDS011;61307;49.628;-1.624;2023-03-04T09:33:08;4.13;;;1.58;;
73120;SDS011;61307;49.628;-1.624;2023-03-04T09:35:36;4.00;;;1.83;;
73120;SDS011;61307;49.628;-1.624;2023-03-04T09:38:03;3.58;;;1.60;;
73120;SDS011;61307;49.628;-1.624;2023-03-04T09:40:36;5.35;;;1.40;;
73120;SDS011;61307;49.628;-1.624;2023-03-04T09:43:09;3.05;;;1.67;;
73120;SDS011;61307;49.628;-1.624;2023-03-04T09:45:44;7.30;;;1.60;;
73120;SDS011;61307;49.628;-1.624;2023-03-04T09:48:16;5.22;;;1.90;;
73120;SDS011;61307;49.628;-1.624;2023-03-04T09:50:49;3.40;;;1.30;;
73120;SDS011;61307;49.628;-1.624;2023-03-04T09:53:28;3.72;;;1.27;;
73120;SDS011;61307;49.628;-1.624;2023-03-04T09:56:04;4.32;;;1.52;;
73120;SDS011;61307;49.628;-1.624;2023-03-04T09:58:36;5.43;;;1.48;;
73120;SDS011;61307;49.628;-1.624;2023-03-04T10:01:10;3.45;;;1.35;;
73120;SDS011;61307;49.628;-1.624;2023-03-04T10:03:46;4.53;;;1.50;;
73120;SDS011;61307;49.628;-1.624;2023-03-04T10:06:17;2.85;;;1.45;;
73120;SDS011;61307;49.628;-1.624;2023-03-04T10:08:49;5.57;;;1.65;;
73120;SDS011;61307;49.628;-1.624;2023-03-04T10:11:26;3.05;;;1.30;;
73120;SDS011;61307;49.628;-1.624;2023-03-04T10:14:11;3.25;;;1.48;;
73120;SDS011;61307;49.628;-1.624;2023-03-04T10:16:53;4.60;;;1.75;;
73120;SDS011;61307;49.628;-1.624;2023-03-04T10:19:29;4.00;;;1.30;;
73120;SDS011;61307;49.628;-1.624;2023-03-04T10:22:14;2.92;;;1.27;;
73120;SDS011;61307;49.628;-1.624;2023-03-04T10:24:46;6.00;;;1.70;;
73120;SDS011;61307;49.628;-1.624;2023-03-04T10:27:15;4.85;;;1.67;;
73120;SDS011;61307;49.628;-1.624;2023-03-04T10:29:45;4.40;;;1.52;;
73120;SDS011;61307;49.628;-1.624;2023-03-04T10:32:12;5.18;;;1.45;;
73120;SDS011;61307;49.628;-1.624;2023-03-04T10:34:42;3.97;;;1.40;;
73120;SDS011;61307;49.628;-1.624;2023-03-04T10:37:09;2.78;;;1.45;;
73120;SDS011;61307;49.628;-1.624;2023-03-04T10:39:38;3.17;;;1.30;;
73120;SDS011;61307;49.628;-1.624;2023-03-04T10:42:20;4.10;;;1.48;;
73120;SDS011;61307;49.628;-1.624;2023-03-04T10:44:54;4.63;;;1.40;;
73120;SDS011;61307;49.628;-1.624;2023-03-04T10:47:23;4.57;;;1.75;;
73120;SDS011;61307;49.628;-1.624;2023-03-04T10:49:52;3.00;;;1.50;;
73120;SDS011;61307;49.628;-1.624;2023-03-04T10:52:25;2.88;;;1.20;;
73120;SDS011;61307;49.628;-1.624;2023-03-04T10:54:55;4.43;;;1.50;;
73120;SDS011;61307;49.628;-1.624;2023-03-04T10:57:27;4.38;;;1.50;;
73120;SDS011;61307;49.628;-1.624;2023-03-04T10:59:59;3.47;;;1.70;;
73120;SDS011;61307;49.628;-1.624;2023-03-04T11:02:28;3.90;;;1.30;;
73120;SDS011;61307;49.628;-1.624;2023-03-04T11:05:04;2.65;;;1.38;;
73120;SDS011;61307;49.628;-1.624;2023-03-04T11:07:36;4.50;;;1.77;;
73120;SDS011;61307;49.628;-1.624;2023-03-04T11:10:06;3.28;;;1.45;;
73120;SDS011;61307;49.628;-1.624;2023-03-04T11:12:36;4.63;;;1.40;;
73120;SDS011;61307;49.628;-1.624;2023-03-04T11:15:14;5.45;;;1.60;;
73120;SDS011;61307;49.628;-1.624;2023-03-04T11:17:46;2.72;;;1.50;;
73120;SDS011;61307;49.628;-1.624;2023-03-04T11:20:17;2.03;;;1.23;;
73120;SDS011;61307;49.628;-1.624;2023-03-04T11:22:54;5.55;;;1.63;;
73120;SDS011;61307;49.628;-1.624;2023-03-04T11:25:25;3.92;;;1.52;;
73120;SDS011;61307;49.628;-1.624;2023-03-04T11:27:57;5.15;;;1.60;;
73120;SDS011;61307;49.628;-1.624;2023-03-04T11:30:35;3.47;;;1.58;;
73120;SDS011;61307;49.628;-1.624;2023-03-04T11:33:17;3.25;;;1.63;;
73120;SDS011;61307;49.628;-1.624;2023-03-04T11:36:05;4.03;;;1.35;;
73120;SDS011;61307;49.628;-1.624;2023-03-04T11:38:44;3.63;;;1.40;;
73120;SDS011;61307;49.628;-1.624;2023-03-04T11:41:15;3.13;;;1.50;;
73120;SDS011;61307;49.628;-1.624;2023-03-04T11:43:48;4.30;;;1.40;;
73120;SDS011;61307;49.628;-1.624;2023-03-04T11:46:28;4.30;;;1.48;;
73120;SDS011;61307;49.628;-1.624;2023-03-04T11:49:21;3.58;;;1.40;;
73120;SDS011;61307;49.628;-1.624;2023-03-04T11:52:01;4.50;;;1.50;;
73120;SDS011;61307;49.628;-1.624;2023-03-04T11:54:38;4.70;;;1.70;;
73120;SDS011;61307;49.628;-1.624;2023-03-04T11:57:15;4.47;;;1.75;;
73120;SDS011;61307;49.628;-1.624;2023-03-04T11:59:56;4.95;;;1.80;;
73120;SDS011;61307;49.628;-1.624;2023-03-04T12:02:42;4.53;;;1.58;;
73120;SDS011;61307;49.628;-1.624;2023-03-04T12:05:25;4.38;;;1.50;;
73120;SDS011;61307;49.628;-1.624;2023-03-04T12:08:00;2.97;;;1.35;;
73120;SDS011;61307;49.628;-1.624;2023-03-04T12:10:41;2.63;;;1.52;;
73120;SDS011;61307;49.628;-1.624;2023-03-04T12:13:24;3.63;;;1.38;;
73120;SDS011;61307;49.628;-1.624;2023-03-04T12:16:12;2.05;;;1.20;;
73120;SDS011;61307;49.628;-1.624;2023-03-04T12:18:53;3.28;;;1.33;;
73120;SDS011;61307;49.628;-1.624;2023-03-04T12:21:36;4.13;;;1.50;;
73120;SDS011;61307;49.628;-1.624;2023-03-04T12:24:25;3.92;;;1.63;;
73120;SDS011;61307;49.628;-1.624;2023-03-04T12:27:19;2.78;;;1.27;;
73120;SDS011;61307;49.628;-1.624;2023-03-04T12:29:55;4.63;;;1.30;;
73120;SDS011;61307;49.628;-1.624;2023-03-04T12:32:33;4.82;;;1.45;;
73120;SDS011;61307;49.628;-1.624;2023-03-04T12:35:22;4.78;;;1.70;;
73120;SDS011;61307;49.628;-1.624;2023-03-04T12:38:05;2.38;;;1.40;;
73120;SDS011;61307;49.628;-1.624;2023-03-04T12:40:52;3.70;;;1.33;;
73120;SDS011;61307;49.628;-1.624;2023-03-04T12:43:29;2.63;;;1.40;;
73120;SDS011;61307;49.628;-1.624;2023-03-04T12:46:06;3.35;;;1.58;;
73120;SDS011;61307;49.628;-1.624;2023-03-04T12:48:46;2.88;;;1.38;;
73120;SDS011;61307;49.628;-1.624;2023-03-04T12:51:25;7.18;;;1.55;;
73120;SDS011;61307;49.628;-1.624;2023-03-04T12:54:04;3.95;;;1.60;;
73120;SDS011;61307;49.628;-1.624;2023-03-04T12:56:43;3.13;;;1.55;;
73120;SDS011;61307;49.628;-1.624;2023-03-04T12:59:15;14.68;;;1.58;;
73120;SDS011;61307;49.628;-1.624;2023-03-04T13:01:46;6.35;;;1.30;;
73120;SDS011;61307;49.628;-1.624;2023-03-04T13:04:22;3.97;;;1.30;;
73120;SDS011;61307;49.628;-1.624;2023-03-04T13:07:01;3.20;;;1.42;;
73120;SDS011;61307;49.628;-1.624;2023-03-04T13:09:37;2.63;;;1.40;;
73120;SDS011;61307;49.628;-1.624;2023-03-04T13:12:13;3.10;;;1.30;;
73120;SDS011;61307;49.628;-1.624;2023-03-04T13:17:54;3.83;;;1.40;;
73120;SDS011;61307;49.628;-1.624;2023-03-04T13:20:31;4.85;;;1.40;;
73120;SDS011;61307;49.628;-1.624;2023-03-04T13:23:02;8.57;;;1.75;;
73120;SDS011;61307;49.628;-1.624;2023-03-04T13:25:47;3.05;;;1.00;;
73120;SDS011;61307;49.628;-1.624;2023-03-04T13:28:33;5.07;;;1.42;;
73120;SDS011;61307;49.628;-1.624;2023-03-04T13:33:51;3.70;;;1.23;;
73120;SDS011;61307;49.628;-1.624;2023-03-04T13:39:33;3.25;;;1.42;;
73120;SDS011;61307;49.628;-1.624;2023-03-04T13:42:02;2.92;;;1.20;;
73120;SDS011;61307;49.628;-1.624;2023-03-04T13:47:43;5.85;;;1.25;;
73120;SDS011;61307;49.628;-1.624;2023-03-04T13:50:27;5.53;;;1.83;;
73120;SDS011;61307;49.628;-1.624;2023-03-04T13:53:01;4.32;;;1.60;;
73120;SDS011;61307;49.628;-1.624;2023-03-04T13:56:11;4.43;;;1.30;;
73120;SDS011;61307;49.628;-1.624;2023-03-04T13:59:10;7.47;;;1.67;;
73120;SDS011;61307;49.628;-1.624;2023-03-04T14:02:07;4.18;;;1.45;;
73120;SDS011;61307;49.628;-1.624;2023-03-04T14:04:39;3.78;;;1.20;;
73120;SDS011;61307;49.628;-1.624;2023-03-04T14:07:18;8.30;;;1.42;;
73120;SDS011;61307;49.628;-1.624;2023-03-04T14:09:55;7.57;;;1.42;;
73120;SDS011;61307;49.628;-1.624;2023-03-04T14:12:30;2.53;;;1.20;;
73120;SDS011;61307;49.628;-1.624;2023-03-04T14:14:59;5.05;;;1.33;;
73120;SDS011;61307;49.628;-1.624;2023-03-04T14:17:30;4.05;;;1.48;;
73120;SDS011;61307;49.628;-1.624;2023-03-04T14:20:01;3.20;;;1.38;;
73120;SDS011;61307;49.628;-1.624;2023-03-04T14:22:30;6.15;;;1.40;;
73120;SDS011;61307;49.628;-1.624;2023-03-04T14:25:04;19.30;;;1.50;;
73120;SDS011;61307;49.628;-1.624;2023-03-04T14:27:46;8.63;;;1.25;;
73120;SDS011;61307;49.628;-1.624;2023-03-04T14:30:24;8.07;;;1.67;;
73120;SDS011;61307;49.628;-1.624;2023-03-04T14:32:53;4.10;;;1.73;;
73120;SDS011;61307;49.628;-1.624;2023-03-04T14:35:23;3.70;;;1.55;;
73120;SDS011;61307;49.628;-1.624;2023-03-04T14:37:53;4.97;;;1.50;;
73120;SDS011;61307;49.628;-1.624;2023-03-04T14:40:26;4.80;;;2.80;;
73120;SDS011;61307;49.628;-1.624;2023-03-04T14:42:55;4.53;;;3.25;;
73120;SDS011;61307;49.628;-1.624;2023-03-04T14:45:26;6.75;;;2.47;;
73120;SDS011;61307;49.628;-1.624;2023-03-04T14:47:55;7.00;;;3.10;;
73120;SDS011;61307;49.628;-1.624;2023-03-04T14:50:27;4.78;;;2.85;;
73120;SDS011;61307;49.628;-1.624;2023-03-04T14:53:03;5.63;;;3.88;;
73120;SDS011;61307;49.628;-1.624;2023-03-04T14:55:52;8.23;;;4.10;;
73120;SDS011;61307;49.628;-1.624;2023-03-04T14:58:22;11.65;;;3.92;;
73120;SDS011;61307;49.628;-1.624;2023-03-04T15:01:01;6.85;;;4.30;;
73120;SDS011;61307;49.628;-1.624;2023-03-04T15:03:38;7.93;;;3.88;;
73120;SDS011;61307;49.628;-1.624;2023-03-04T15:06:07;16.13;;;3.28;;
73120;SDS011;61307;49.628;-1.624;2023-03-04T15:08:43;8.45;;;3.10;;